Disclaimer

Please do not use the information listed here in-flight or in-navigation, as they are not provided to us by the airports but are provided by volunteers, so they might be outdated.

Search


Regions


Airport information page

No radio frequency information is available.

Airport informations:
Latitude: 24° 33' 18.81" S
Longitude: 025° 55' 05.55" E
Elevation: 3299 feet - 1006 meters
Operating hours: Remarks
Operating agency: Civil government, landing fees and diplomatic clearance may be required
Timezone: UTC+2
Fuel: Jet A1, without icing nhibitor.

100/130 MIL Spec, low lead, aviation gasoline (BLUE)

Runway information:
08/26 - 9843 x 148 feet< - >3000 x 45 meters

Recent METARs:
FBSK 130300Z 09005KT CAVOK 19/04 Q1021 NOSIG
FBSK 130400Z 06007KT CAVOK 20/05 Q1022 NOSIG
FBSK 130400Z 06007KT CAVOK 20/05 Q1022 NOSIG

Airport on the map: